Archival Weather

Norman Y Mineta San Jose Intl

San Jose, California (KSJC)

Report from: Wednesday, February 21, 2024 7:53 AM PST
Current time: Friday, June 21, 2024 1:31 AM PDT

Current weather – Weather history – Daily summaries
Weather forecast

Temperature8.3°C (46.9°F)
Wind chill7.2°C (44.9°F)
Dew point7.2°C (45.0°F)
Winds 4 kts (2.1 m/s, 4.6 mph) South-Southeast (150°)
Visibility7 mi. (11.3 km)
Clouds Few clouds 0 ft. (0 m)
Few clouds 1,100 ft. (335 m)
Scattered clouds 1,500 ft. (457 m)
Altimeter30.14 in.Hg (1021 mB)
Relative humidity93 %
Density altitude-904 ft. (-276 m)
Sea-level pressure102.1 kPa (1021 mB, 30.14 in.Hg)
Remarks Automated weather observing station with precipitation discriminator
Visibility northeast east southeast
Flight conditions Visual Meteorological Conditions
Raw dataKSJC 211553Z 15004KT 7SM R30L/3000VP6000FT FEW000 FEW011 SCT015 08/07 A3014 RMK AO2 SLP205 VIS NE 2 E 1/2 SE 1 T00830072
An error has occurred. This application may no longer respond until reloaded. Reload 🗙